Time;durP1;ratioP1;P1;durP2;ratioP2;P2;SDS_P1;SDS_P2;PMS_P1;PMS_P2;Temp;Humidity;BMP_temperature;BMP_pressure;BME280_temperature;BME280_humidity;BME280_pressure;Samples;Min_cycle;Max_cycle;Signal;HPM_P1;HPM_P2
2023/07/25 00:02:13;;;;;;;;;;;;;;;13.70;95.22;100648.31;5017235;28;19918;-54
2023/07/25 00:04:38;;;;;;;;;;;;;;;13.65;95.26;100650.00;5019714;28;19930;-54
2023/07/25 00:07:03;;;;;;;;;;;;;;;13.56;95.32;100645.59;5021385;28;20156;-55
2023/07/25 00:09:28;;;;;;;;;;;;;;;13.51;95.58;100654.25;5021032;28;20268;-54
2023/07/25 00:11:54;;;;;;;;;;;;;;;13.45;95.65;100646.38;5026719;28;20403;-54
2023/07/25 00:14:19;;;;;;;;;;;;;;;13.42;95.84;100647.22;5026579;28;19924;-54
2023/07/25 00:16:44;;;;;;;;;;;;;;;13.38;95.58;100651.56;5025412;28;19913;-54
2023/07/25 00:19:09;;;;;;;;;;;;;;;13.35;95.57;100645.41;5019462;28;19925;-54
2023/07/25 00:21:35;;;;;;;;;;;;;;;13.32;95.65;100651.44;5029155;28;19917;-54
2023/07/25 00:24:00;;;;;;;;;;;;;;;13.31;95.74;100649.72;5032766;28;19908;-55
2023/07/25 00:26:25;;;;;;;;;;;;;;;13.31;95.75;100640.97;5028782;28;19913;-54
2023/07/25 00:28:50;;;;;;;;;;;;;;;13.30;95.69;100647.09;5024872;28;20378;-54
2023/07/25 00:31:15;;;;;;;;;;;;;;;13.31;95.84;100638.34;5016813;28;20007;-54
2023/07/25 00:33:41;;;;;;;;;;;;;;;13.30;95.67;100641.84;5019743;28;19913;-54
2023/07/25 00:36:06;;;;;;;;;;;;;;;13.28;95.76;100635.72;5031311;28;19913;-54
2023/07/25 00:38:31;;;;;;;;;;;;;;;13.23;95.79;100639.16;5031835;28;19917;-54
2023/07/25 00:40:57;;;;;;;;;;;;;;;13.17;95.78;100644.34;5027589;28;20280;-54
2023/07/25 00:43:22;;;;;;;;;;;;;;;13.15;95.99;100647.78;5016161;28;19999;-54
2023/07/25 00:45:47;;;;;;;;;;;;;;;13.13;96.01;100641.69;5027625;28;20000;-54
2023/07/25 00:48:13;;;;;;;;;;;;;;;13.09;96.14;100640.75;5030400;28;20287;-54
2023/07/25 00:50:38;;;;;;;;;;;;;;;13.09;96.23;100646.00;5014100;28;19932;-54
2023/07/25 00:53:05;;;;;;;;;;;;;;;13.09;96.31;100650.34;5019352;28;19914;-54
2023/07/25 00:55:30;;;;;;;;;;;;;;;13.05;96.36;100642.47;5028481;28;20319;-54
2023/07/25 00:57:55;;;;;;;;;;;;;;;13.00;96.20;100644.16;5019363;28;19913;-54
2023/07/25 01:00:21;;;;;;;;;;;;;;;12.99;96.35;100646.75;5020183;28;19917;-55
2023/07/25 01:02:46;;;;;;;;;;;;;;;12.98;96.41;100639.81;5023367;28;19917;-54
2023/07/25 01:05:11;;;;;;;;;;;;;;;12.97;96.49;100638.91;5015519;28;19979;-54
2023/07/25 01:07:38;;;;;;;;;;;;;;;12.99;96.47;100637.19;5010897;28;20356;-54
2023/07/25 01:10:04;;;;;;;;;;;;;;;12.99;96.63;100638.91;5012901;28;19917;-54
2023/07/25 01:12:29;;;;;;;;;;;;;;;12.89;96.50;100632.72;5004273;28;19932;-55
2023/07/25 01:14:54;;;;;;;;;;;;;;;12.69;96.46;100636.00;5007441;28;19920;-54
2023/07/25 01:17:21;;;;;;;;;;;;;;;12.57;97.06;100637.56;5017129;28;19906;-54
2023/07/25 01:19:47;;;;;;;;;;;;;;;12.54;97.59;100633.19;5017898;28;19921;-54
2023/07/25 01:22:12;;;;;;;;;;;;;;;12.56;97.81;100641.94;5009353;28;19925;-54
2023/07/25 01:24:41;;;;;;;;;;;;;;;12.62;97.72;100646.38;5010724;28;20380;-54
2023/07/25 01:27:06;;;;;;;;;;;;;;;12.65;97.67;100634.19;5008415;28;20058;-54
2023/07/25 01:29:31;;;;;;;;;;;;;;;12.66;97.71;100632.47;5007674;28;20277;-54
2023/07/25 01:31:56;;;;;;;;;;;;;;;12.68;97.54;100636.84;5005451;28;19917;-54
2023/07/25 01:34:22;;;;;;;;;;;;;;;12.68;97.46;100635.97;5017444;28;20385;-54
2023/07/25 01:36:47;;;;;;;;;;;;;;;12.66;97.42;100632.47;5019780;28;19944;-55
2023/07/25 01:39:12;;;;;;;;;;;;;;;12.65;97.40;100631.59;5022417;28;19917;-54
2023/07/25 01:41:39;;;;;;;;;;;;;;;12.66;97.24;100622.03;5014529;28;19971;-54
2023/07/25 01:44:05;;;;;;;;;;;;;;;12.66;97.29;100627.25;5021575;28;20028;-54
2023/07/25 01:46:30;;;;;;;;;;;;;;;12.65;97.17;100626.34;5020744;28;20008;-54
2023/07/25 01:48:55;;;;;;;;;;;;;;;12.66;97.18;100622.03;5021280;28;19921;-54
2023/07/25 01:51:20;;;;;;;;;;;;;;;12.64;97.23;100614.16;5020036;28;20331;-54
2023/07/25 01:53:45;;;;;;;;;;;;;;;12.59;97.27;100622.81;5021186;28;20012;-54
2023/07/25 01:56:11;;;;;;;;;;;;;;;12.49;97.48;100624.44;5016527;28;19996;-54
2023/07/25 01:58:36;;;;;;;;;;;;;;;12.42;97.79;100623.47;5024993;28;19919;-54
2023/07/25 02:01:01;;;;;;;;;;;;;;;12.40;97.75;100621.69;5014521;28;19921;-54
2023/07/25 02:03:26;;;;;;;;;;;;;;;12.40;97.92;100614.75;5025185;28;19912;-54
2023/07/25 02:05:51;;;;;;;;;;;;;;;12.42;98.01;100619.97;5020901;28;19951;-54
2023/07/25 02:08:17;;;;;;;;;;;;;;;12.43;97.91;100608.69;5023154;28;19913;-54
2023/07/25 02:10:42;;;;;;;;;;;;;;;12.44;97.92;100615.66;5022110;28;19920;-54
2023/07/25 02:13:07;;;;;;;;;;;;;;;12.44;97.51;100608.69;5021269;28;19955;-54
2023/07/25 02:15:32;;;;;;;;;;;;;;;12.44;97.62;100615.66;5021177;28;19921;-54
2023/07/25 02:17:58;;;;;;;;;;;;;;;12.41;97.40;100616.50;5013202;28;19920;-54
2023/07/25 02:20:25;;;;;;;;;;;;;;;12.38;97.51;100611.22;5018845;28;19916;-54
2023/07/25 02:22:51;;;;;;;;;;;;;;;12.37;97.75;100609.47;5017445;28;19920;-54
2023/07/25 02:25:16;;;;;;;;;;;;;;;12.37;97.60;100608.59;5026316;28;20299;-54
2023/07/25 02:27:41;;;;;;;;;;;;;;;12.33;97.60;100610.28;5011693;28;19979;-54
2023/07/25 02:30:06;;;;;;;;;;;;;;;12.31;97.72;100615.50;5012493;28;19909;-55
2023/07/25 02:32:32;;;;;;;;;;;;;;;12.29;97.58;100603.28;5016051;28;19928;-54
2023/07/25 02:34:57;;;;;;;;;;;;;;;12.28;97.59;100604.13;5023877;28;20363;-54
2023/07/25 02:37:22;;;;;;;;;;;;;;;12.27;97.64;100607.63;5025279;28;19940;-54
2023/07/25 02:39:47;;;;;;;;;;;;;;;12.26;97.66;100604.09;5016028;28;19940;-54
2023/07/25 02:42:12;;;;;;;;;;;;;;;12.27;97.44;100602.41;5007813;28;19913;-54
2023/07/25 02:44:38;;;;;;;;;;;;;;;12.24;97.47;100608.44;5013097;28;19913;-54
2023/07/25 02:47:03;;;;;;;;;;;;;;;12.19;97.44;100604.88;5017686;28;20384;-54
2023/07/25 02:49:28;;;;;;;;;;;;;;;12.15;97.30;100606.59;5014899;28;19944;-54
2023/07/25 02:51:53;;;;;;;;;;;;;;;12.14;97.41;100606.56;5027796;28;20261;-54
2023/07/25 02:54:19;;;;;;;;;;;;;;;12.14;97.60;100606.56;5014445;28;20044;-54
2023/07/25 02:56:44;;;;;;;;;;;;;;;12.12;97.51;100611.78;5009415;28;20391;-54
2023/07/25 02:59:09;;;;;;;;;;;;;;;12.08;97.66;100607.38;5014180;28;20000;-54
2023/07/25 03:01:34;;;;;;;;;;;;;;;12.04;97.54;100609.91;5009751;28;19927;-55
2023/07/25 03:03:59;;;;;;;;;;;;;;;12.02;97.50;100611.63;5010814;28;20414;-54
2023/07/25 03:06:24;;;;;;;;;;;;;;;12.02;97.74;100607.28;5023880;28;19973;-54
2023/07/25 03:08:50;;;;;;;;;;;;;;;12.01;97.87;100602.91;5028991;28;19915;-54
2023/07/25 03:11:15;;;;;;;;;;;;;;;11.99;97.87;100602.00;5024621;28;20283;-55
2023/07/25 03:13:40;;;;;;;;;;;;;;;11.99;97.93;100604.59;5028374;28;19963;-54
2023/07/25 03:16:05;;;;;;;;;;;;;;;12.00;97.94;100607.25;5024975;28;19917;-54
2023/07/25 03:18:31;;;;;;;;;;;;;;;12.00;98.02;100615.06;5021864;28;19913;-54
2023/07/25 03:20:56;;;;;;;;;;;;;;;12.00;98.18;100606.38;5020929;28;19925;-54
2023/07/25 03:23:21;;;;;;;;;;;;;;;11.99;98.22;100613.34;5003705;28;19960;-54
2023/07/25 03:25:46;;;;;;;;;;;;;;;11.99;98.29;100607.22;5007432;28;20286;-55
2023/07/25 03:28:11;;;;;;;;;;;;;;;11.98;98.26;100601.13;5020619;28;20391;-55
2023/07/25 03:30:36;;;;;;;;;;;;;;;11.98;98.42;100603.75;5009896;28;19925;-54
2023/07/25 03:33:02;;;;;;;;;;;;;;;11.98;98.50;100601.13;5017036;28;19963;-54
2023/07/25 03:35:27;;;;;;;;;;;;;;;11.98;98.69;100595.91;5007559;28;19920;-54
2023/07/25 03:37:52;;;;;;;;;;;;;;;11.99;98.81;100597.69;5003973;28;19913;-54
2023/07/25 03:40:17;;;;;;;;;;;;;;;12.01;98.96;100592.47;5020732;28;19967;-54
2023/07/25 03:42:42;;;;;;;;;;;;;;;12.03;98.87;100585.53;5025600;28;19913;-54
2023/07/25 03:45:08;;;;;;;;;;;;;;;12.05;99.11;100596.00;5028789;28;20000;-55
2023/07/25 03:47:33;;;;;;;;;;;;;;;12.05;99.00;100589.06;5022219;28;19919;-55
2023/07/25 03:49:58;;;;;;;;;;;;;;;12.04;99.29;100592.50;5020569;28;19928;-54
2023/07/25 03:52:23;;;;;;;;;;;;;;;12.07;99.34;100591.69;5027673;28;20298;-54
2023/07/25 03:54:49;;;;;;;;;;;;;;;12.08;99.38;100593.41;5021461;28;19913;-54
2023/07/25 03:57:14;;;;;;;;;;;;;;;12.12;99.35;100597.81;5019640;28;19917;-54
2023/07/25 03:59:39;;;;;;;;;;;;;;;12.10;99.47;100594.31;5021783;28;20227;-54
2023/07/25 04:02:04;;;;;;;;;;;;;;;12.09;99.76;100595.19;5029626;28;20291;-53
2023/07/25 04:04:30;;;;;;;;;;;;;;;12.10;99.85;100605.63;5029278;28;19913;-54
2023/07/25 04:06:55;;;;;;;;;;;;;;;12.12;100.00;100608.28;5027718;28;20367;-54
2023/07/25 04:09:20;;;;;;;;;;;;;;;12.12;100.00;100608.28;5033354;28;19963;-54
2023/07/25 04:11:45;;;;;;;;;;;;;;;12.12;100.00;100603.03;5028054;28;19913;-55
2023/07/25 04:14:10;;;;;;;;;;;;;;;12.12;100.00;100600.44;5031595;28;20331;-54
2023/07/25 04:16:35;;;;;;;;;;;;;;;12.15;100.00;100603.09;5018214;28;20442;-54
2023/07/25 04:19:01;;;;;;;;;;;;;;;12.17;100.00;100602.25;5029052;28;19920;-53
2023/07/25 04:21:26;;;;;;;;;;;;;;;12.16;100.00;100600.50;5026058;28;19917;-54
2023/07/25 04:23:51;;;;;;;;;;;;;;;12.18;100.00;100600.53;5018803;28;20350;-54
2023/07/25 04:26:16;;;;;;;;;;;;;;;12.20;100.00;100606.66;5030015;28;19970;-54
2023/07/25 04:28:41;;;;;;;;;;;;;;;12.21;100.00;100607.50;5017994;28;20403;-54
2023/07/25 04:31:07;;;;;;;;;;;;;;;12.17;100.00;100604.88;5027217;28;20307;-54
2023/07/25 04:33:32;;;;;;;;;;;;;;;12.19;100.00;100607.50;5019118;28;19916;-54
2023/07/25 04:35:57;;;;;;;;;;;;;;;12.19;100.00;100604.88;5011547;28;20387;-55
2023/07/25 04:38:22;;;;;;;;;;;;;;;12.21;100.00;100610.13;5020793;28;20439;-54
2023/07/25 04:40:47;;;;;;;;;;;;;;;12.20;100.00;100601.44;5030875;28;20417;-54
2023/07/25 04:43:13;;;;;;;;;;;;;;;12.17;100.00;100604.88;5019616;28;19944;-54
2023/07/25 04:45:38;;;;;;;;;;;;;;;12.17;100.00;100607.47;5015750;28;20405;-54
2023/07/25 04:48:03;;;;;;;;;;;;;;;12.20;100.00;100606.66;5013114;28;19921;-55
2023/07/25 04:50:29;;;;;;;;;;;;;;;12.21;100.00;100613.63;5014820;28;19917;-54
2023/07/25 04:52:54;;;;;;;;;;;;;;;12.21;100.00;100607.50;5023312;28;19960;-54
2023/07/25 04:55:19;;;;;;;;;;;;;;;12.15;100.00;100613.53;5026057;28;20410;-54
2023/07/25 04:57:44;;;;;;;;;;;;;;;12.12;100.00;100605.66;5024295;28;20295;-54
2023/07/25 05:00:10;;;;;;;;;;;;;;;12.13;100.00;100597.84;5022597;28;20056;-54
2023/07/25 05:02:35;;;;;;;;;;;;;;;12.16;100.00;100599.63;5010930;28;19917;-55
2023/07/25 05:05:01;;;;;;;;;;;;;;;12.21;100.00;100599.69;5025092;28;20007;-54
2023/07/25 05:07:26;;;;;;;;;;;;;;;12.25;100.00;100604.09;5027113;28;19938;-54
2023/07/25 05:09:51;;;;;;;;;;;;;;;12.26;100.00;100606.72;5013745;28;19960;-54
2023/07/25 05:12:16;;;;;;;;;;;;;;;12.30;100.00;100608.50;5012432;28;19921;-54
2023/07/25 05:14:41;;;;;;;;;;;;;;;12.31;100.00;100610.28;5017191;28;19913;-54
2023/07/25 05:17:07;;;;;;;;;;;;;;;12.30;100.00;100613.75;5020464;28;19943;-54
2023/07/25 05:19:32;;;;;;;;;;;;;;;12.32;100.00;100611.16;5017179;28;20302;-54
2023/07/25 05:21:57;;;;;;;;;;;;;;;12.31;100.00;100609.38;5022628;28;19918;-54
2023/07/25 05:24:23;;;;;;;;;;;;;;;12.34;100.00;100615.53;5011107;28;20295;-54
2023/07/25 05:26:49;;;;;;;;;;;;;;;12.42;100.00;100614.75;5017116;28;20500;-55
2023/07/25 05:29:14;;;;;;;;;;;;;;;12.46;100.00;100609.59;5016932;28;20000;-54
2023/07/25 05:31:39;;;;;;;;;;;;;;;12.51;100.00;100609.63;5017862;28;19913;-54
2023/07/25 05:34:04;;;;;;;;;;;;;;;12.58;100.00;100614.06;5024061;28;19913;-54
2023/07/25 05:36:29;;;;;;;;;;;;;;;12.63;100.00;100612.41;5023166;28;19966;-58
2023/07/25 05:38:55;;;;;;;;;;;;;;;12.69;100.00;100606.38;5015913;28;20291;-55
2023/07/25 05:41:20;;;;;;;;;;;;;;;12.71;100.00;100609.88;5013576;28;20025;-55
2023/07/25 05:43:45;;;;;;;;;;;;;;;12.75;100.00;100613.41;5023608;28;19995;-55
2023/07/25 05:46:10;;;;;;;;;;;;;;;12.77;100.00;100619.50;5029379;28;20012;-55
2023/07/25 05:48:36;;;;;;;;;;;;;;;12.82;100.00;100620.47;5013654;28;19917;-55
2023/07/25 05:51:01;;;;;;;;;;;;;;;12.87;100.00;100623.97;5011831;28;19967;-55
2023/07/25 05:53:26;;;;;;;;;;;;;;;12.92;100.00;100624.03;5012215;28;19965;-55
2023/07/25 05:55:51;;;;;;;;;;;;;;;12.95;100.00;100624.94;5021837;28;20367;-55
2023/07/25 05:58:17;;;;;;;;;;;;;;;13.00;100.00;100628.47;5019743;28;19916;-55
2023/07/25 06:00:43;;;;;;;;;;;;;;;13.03;100.00;100631.13;5016200;28;20503;-55
2023/07/25 06:03:11;;;;;;;;;;;;;;;13.04;100.00;100630.25;5010083;28;19927;-55
2023/07/25 06:05:36;;;;;;;;;;;;;;;13.09;100.00;100632.03;5023355;28;20008;-55
2023/07/25 06:08:02;;;;;;;;;;;;;;;13.13;100.00;100624.22;5022901;28;20000;-55
2023/07/25 06:10:27;;;;;;;;;;;;;;;13.18;100.00;100614.69;5016510;28;19960;-55
2023/07/25 06:12:52;;;;;;;;;;;;;;;13.25;100.00;100622.59;5013708;28;20188;-56
2023/07/25 06:15:17;;;;;;;;;;;;;;;13.24;100.00;100621.72;5019825;28;20177;-55
2023/07/25 06:17:42;;;;;;;;;;;;;;;13.28;100.00;100618.28;5013015;28;19913;-55
2023/07/25 06:20:08;;;;;;;;;;;;;;;13.28;100.00;100613.06;5022564;28;19917;-55
2023/07/25 06:22:34;;;;;;;;;;;;;;;13.31;100.00;100623.53;5022513;28;19917;-55
2023/07/25 06:25:01;;;;;;;;;;;;;;;13.34;100.00;100623.59;5024975;28;19920;-55
2023/07/25 06:27:26;;;;;;;;;;;;;;;13.38;100.00;100625.38;5017697;28;20091;-55
2023/07/25 06:29:51;;;;;;;;;;;;;;;13.43;100.00;100627.16;5016157;28;19913;-55
2023/07/25 06:32:17;;;;;;;;;;;;;;;13.47;100.00;100639.38;5016114;28;19925;-55
2023/07/25 06:34:42;;;;;;;;;;;;;;;13.52;100.00;100635.94;5016865;28;19914;-56
2023/07/25 06:37:07;;;;;;;;;;;;;;;13.59;100.00;100647.34;5012660;28;19913;-55
2023/07/25 06:39:32;;;;;;;;;;;;;;;13.66;100.00;100643.94;5014893;28;20274;-55
2023/07/25 06:41:58;;;;;;;;;;;;;;;13.70;100.00;100640.47;5011546;28;19964;-55
2023/07/25 06:44:23;;;;;;;;;;;;;;;13.70;100.00;100636.94;5022441;28;19955;-55
2023/07/25 06:46:48;;;;;;;;;;;;;;;13.72;100.00;100638.72;5026004;28;19995;-55
2023/07/25 06:49:14;;;;;;;;;;;;;;;13.80;100.00;100640.53;5020570;28;19913;-55
2023/07/25 06:51:39;;;;;;;;;;;;;;;13.90;100.00;100639.72;5022489;28;19920;-55
2023/07/25 06:54:04;;;;;;;;;;;;;;;13.96;100.00;100631.91;5008785;28;19925;-55
2023/07/25 06:56:29;;;;;;;;;;;;;;;14.07;100.00;100632.84;5012700;28;20489;-55
2023/07/25 06:58:54;;;;;;;;;;;;;;;14.17;100.00;100630.28;5022675;28;19954;-55
2023/07/25 07:01:20;;;;;;;;;;;;;;;14.24;100.00;100632.06;5014301;28;19920;-55
2023/07/25 07:03:45;;;;;;;;;;;;;;;14.36;100.00;100637.34;5009695;28;20272;-55
2023/07/25 07:06:11;;;;;;;;;;;;;;;14.47;100.00;100640.03;5015904;28;19916;-55
2023/07/25 07:08:36;;;;;;;;;;;;;;;14.59;100.00;100632.22;5008896;28;19921;-55
2023/07/25 07:11:01;;;;;;;;;;;;;;;14.64;100.00;100629.63;5020950;28;19925;-56
2023/07/25 07:13:27;;;;;;;;;;;;;;;14.72;100.00;100635.78;5017740;28;19916;-55
2023/07/25 07:15:52;;;;;;;;;;;;;;;14.80;100.00;100650.66;5024225;28;19916;-55
2023/07/25 07:18:18;;;;;;;;;;;;;;;14.89;100.00;100646.34;5013806;28;20268;-55
2023/07/25 07:20:48;;;;;;;;;;;;;;;14.94;100.00;100648.97;5023771;28;19921;-55
2023/07/25 07:23:13;;;;;;;;;;;;;;;14.92;100.00;100655.97;5018034;28;19922;-55
2023/07/25 07:25:38;;;;;;;;;;;;;;;14.97;100.00;100654.22;5019266;28;19916;-55
2023/07/25 07:28:04;;;;;;;;;;;;;;;15.02;99.73;100657.75;5016035;28;19956;-55
2023/07/25 07:30:29;;;;;;;;;;;;;;;15.11;100.00;100654.25;5020864;28;19996;-55
2023/07/25 07:32:55;;;;;;;;;;;;;;;15.20;98.83;100656.88;5025492;28;19913;-55
2023/07/25 07:35:20;;;;;;;;;;;;;;;15.24;99.21;100655.16;5023637;28;19920;-55
2023/07/25 07:37:45;;;;;;;;;;;;;;;15.26;98.96;100656.00;5015393;28;20349;-56
2023/07/25 07:40:11;;;;;;;;;;;;;;;15.20;98.84;100651.63;5024345;28;20387;-55
2023/07/25 07:42:36;;;;;;;;;;;;;;;15.20;98.70;100658.66;5028829;28;19970;-55
2023/07/25 07:45:01;;;;;;;;;;;;;;;15.21;98.71;100660.41;5019966;28;19913;-55
2023/07/25 07:47:26;;;;;;;;;;;;;;;15.23;99.05;100662.13;5021150;28;19916;-55
2023/07/25 07:49:51;;;;;;;;;;;;;;;15.26;99.13;100671.75;5028106;28;20339;-55
2023/07/25 07:52:17;;;;;;;;;;;;;;;15.26;98.48;100669.16;5019748;28;19917;-56
2023/07/25 07:54:42;;;;;;;;;;;;;;;15.22;98.32;100672.63;5007954;28;19921;-55
2023/07/25 07:57:07;;;;;;;;;;;;;;;15.17;98.33;100672.63;5012798;28;19925;-55
2023/07/25 07:59:32;;;;;;;;;;;;;;;15.12;98.21;100677.00;5017014;28;20459;-55
2023/07/25 08:01:57;;;;;;;;;;;;;;;15.09;98.43;100680.50;5012752;28;19922;-56
2023/07/25 08:04:22;;;;;;;;;;;;;;;15.04;98.22;100681.34;5012534;28;19913;-56
2023/07/25 08:06:48;;;;;;;;;;;;;;;15.04;97.31;100683.97;5008665;28;20361;-55
2023/07/25 08:09:13;;;;;;;;;;;;;;;15.01;96.22;100682.22;5009998;28;19968;-55
2023/07/25 08:11:38;;;;;;;;;;;;;;;14.99;97.13;100689.22;5013127;28;20334;-55
2023/07/25 08:14:03;;;;;;;;;;;;;;;15.02;96.82;100686.59;5027757;28;19913;-55
2023/07/25 08:16:29;;;;;;;;;;;;;;;15.05;97.08;100691.00;5039514;28;19941;-55
2023/07/25 08:18:54;;;;;;;;;;;;;;;15.08;95.95;100686.59;5007040;28;19917;-55
2023/07/25 08:21:19;;;;;;;;;;;;;;;15.11;95.38;100683.13;5011909;28;19948;-55
2023/07/25 08:23:44;;;;;;;;;;;;;;;15.18;95.17;100691.88;5008287;28;19913;-55
2023/07/25 08:26:09;;;;;;;;;;;;;;;15.22;94.36;100696.25;5007002;28;19974;-55
2023/07/25 08:28:35;;;;;;;;;;;;;;;15.25;94.24;100688.38;5018259;28;19920;-56
2023/07/25 08:31:06;;;;;;;;;;;;;;;15.29;93.04;100695.38;5014317;28;20082;-56
2023/07/25 08:33:31;;;;;;;;;;;;;;;15.27;93.19;100694.53;5013837;28;20369;-56
2023/07/25 08:35:57;;;;;;;;;;;;;;;15.26;92.97;100695.38;5020981;28;19996;-55
2023/07/25 08:38:22;;;;;;;;;;;;;;;15.29;90.98;100695.38;5025308;28;19917;-55
2023/07/25 08:40:54;;;;;;;;;;;;;;;15.27;92.26;100700.63;5030379;28;20282;-55
2023/07/25 08:43:20;;;;;;;;;;;;;;;15.33;92.09;100701.53;5019869;28;20429;-55
2023/07/25 08:45:47;;;;;;;;;;;;;;;15.44;90.54;100705.06;5032641;28;20455;-55
2023/07/25 08:48:14;;;;;;;;;;;;;;;15.57;91.83;100705.91;5018607;28;19967;-55
2023/07/25 08:50:40;;;;;;;;;;;;;;;15.72;88.50;100707.69;5026532;28;19920;-55
2023/07/25 08:53:09;;;;;;;;;;;;;;;15.84;86.77;100710.34;5017627;28;19909;-55
2023/07/25 08:55:34;;;;;;;;;;;;;;;15.88;86.68;100717.34;5027358;28;19920;-55
2023/07/25 08:57:59;;;;;;;;;;;;;;;15.95;86.13;100715.63;5024070;28;19913;-55
2023/07/25 09:00:25;;;;;;;;;;;;;;;15.97;85.51;100727.88;5029543;28;20293;-55
2023/07/25 09:02:51;;;;;;;;;;;;;;;16.00;86.09;100721.72;5024829;28;20284;-55
2023/07/25 09:05:16;;;;;;;;;;;;;;;16.04;86.58;100725.25;5020193;28;19974;-55
2023/07/25 09:07:41;;;;;;;;;;;;;;;16.09;87.28;100724.38;5014467;28;20024;-55
2023/07/25 09:10:06;;;;;;;;;;;;;;;16.14;86.75;100722.59;5029981;28;19923;-55
2023/07/25 09:12:32;;;;;;;;;;;;;;;16.23;87.90;100721.69;5021200;28;20003;-55
2023/07/25 09:14:57;;;;;;;;;;;;;;;16.39;88.36;100724.31;5021179;28;19935;-55
2023/07/25 09:17:22;;;;;;;;;;;;;;;16.51;87.67;100722.53;5031990;28;20359;-55
2023/07/25 09:19:47;;;;;;;;;;;;;;;16.62;86.64;100725.09;5031778;28;20320;-55
2023/07/25 09:22:33;;;;;;;;;;;;;;;16.72;86.80;100731.22;5031674;28;19917;-55
2023/07/25 09:24:58;;;;;;;;;;;;;;;16.89;86.76;100728.56;5023979;28;20007;-55
2023/07/25 09:27:25;;;;;;;;;;;;;;;17.09;84.23;100720.56;5010984;28;20009;-55
2023/07/25 09:29:51;;;;;;;;;;;;;;;17.31;82.00;100720.44;5022838;28;19913;-55
2023/07/25 09:32:21;;;;;;;;;;;;;;;17.50;82.38;100724.69;5024553;28;19971;-55
2023/07/25 09:34:54;;;;;;;;;;;;;;;17.79;82.11;100714.84;5019126;28;19912;-54
2023/07/25 09:37:19;;;;;;;;;;;;;;;17.92;80.54;100715.63;5019965;28;19913;-55
2023/07/25 09:39:44;;;;;;;;;;;;;;;18.01;80.44;100715.53;5023252;28;19975;-55
2023/07/25 09:42:09;;;;;;;;;;;;;;;18.09;80.54;100721.63;5022560;28;19917;-55
2023/07/25 09:44:35;;;;;;;;;;;;;;;18.25;78.98;100712.66;5029049;28;20318;-54
2023/07/25 09:47:00;;;;;;;;;;;;;;;18.43;79.97;100723.91;5021848;28;20390;-55
2023/07/25 09:49:25;;;;;;;;;;;;;;;18.65;77.58;100721.03;5029676;28;19917;-55
2023/07/25 09:51:57;;;;;;;;;;;;;;;18.75;79.20;100728.81;5026054;28;19955;-55
2023/07/25 09:54:23;;;;;;;;;;;;;;;18.98;78.92;100726.81;5028190;28;19963;-55
2023/07/25 09:56:48;;;;;;;;;;;;;;;19.28;76.52;100721.09;5014837;28;19917;-55
2023/07/25 09:59:13;;;;;;;;;;;;;;;19.46;70.05;100727.91;5015141;28;19916;-55
2023/07/25 10:01:39;;;;;;;;;;;;;;;19.17;72.46;100735.38;5016852;28;19925;-55
2023/07/25 10:04:04;;;;;;;;;;;;;;;18.79;70.84;100734.06;5008190;28;19933;-55
2023/07/25 10:06:30;;;;;;;;;;;;;;;18.45;68.55;100734.44;5009349;28;20352;-55
2023/07/25 10:08:57;;;;;;;;;;;;;;;18.03;73.27;100733.09;5008599;28;20368;-55
2023/07/25 10:11:22;;;;;;;;;;;;;;;17.83;76.44;100727.97;5016918;28;19916;-55
2023/07/25 10:13:49;;;;;;;;;;;;;;;17.80;76.19;100730.63;5017531;28;19912;-55
2023/07/25 10:16:15;;;;;;;;;;;;;;;17.70;76.91;100732.47;5020255;28;19913;-54
2023/07/25 10:18:40;;;;;;;;;;;;;;;17.63;75.64;100727.25;5024096;28;19947;-55
2023/07/25 10:21:07;;;;;;;;;;;;;;;17.65;76.50;100720.19;5009587;28;20004;-54
2023/07/25 10:23:34;;;;;;;;;;;;;;;17.88;72.74;100726.16;5006756;28;19921;-55
2023/07/25 10:26:12;;;;;;;;;;;;;;;18.11;75.71;100725.13;5004783;28;20360;-55
2023/07/25 10:28:38;;;;;;;;;;;;;;;18.56;72.99;100725.50;5008484;28;19923;-55
2023/07/25 10:31:07;;;;;;;;;;;;;;;19.02;74.43;100725.91;5008102;28;19913;-55
2023/07/25 10:33:36;;;;;;;;;;;;;;;19.35;71.99;100715.72;5004284;28;19927;-55
2023/07/25 10:36:01;;;;;;;;;;;;;;;19.51;69.95;100719.91;5020165;28;19913;-55
2023/07/25 10:38:33;;;;;;;;;;;;;;;19.69;66.28;100713.44;5024172;28;20403;-55
2023/07/25 10:40:58;;;;;;;;;;;;;;;19.77;67.52;100718.63;5015566;28;19924;-56
2023/07/25 10:43:28;;;;;;;;;;;;;;;19.71;69.63;100714.31;5009223;28;19921;-56
2023/07/25 10:45:54;;;;;;;;;;;;;;;19.71;68.51;100722.25;5012455;28;19917;-56
2023/07/25 10:48:33;;;;;;;;;;;;;;;19.52;70.54;100723.41;5011059;28;19928;-55
2023/07/25 10:50:59;;;;;;;;;;;;;;;19.26;68.97;100724.66;5019145;28;21470;-56
2023/07/25 10:53:24;;;;;;;;;;;;;;;19.09;67.42;100727.56;5021193;28;20363;-55
2023/07/25 10:56:04;;;;;;;;;;;;;;;19.18;70.49;100730.06;5019544;28;19924;-55
2023/07/25 10:58:30;;;;;;;;;;;;;;;19.45;66.98;100723.50;5014931;28;20355;-56
2023/07/25 11:00:55;;;;;;;;;;;;;;;19.79;67.01;100719.50;5020874;28;19917;-56
2023/07/25 11:03:27;;;;;;;;;;;;;;;20.10;68.33;100718.94;5012143;28;19913;-55
2023/07/25 11:06:12;;;;;;;;;;;;;;;20.37;68.34;100717.56;5012953;28;20003;-55
2023/07/25 11:08:38;;;;;;;;;;;;;;;20.26;64.26;100720.44;5009616;28;19948;-56
2023/07/25 11:11:08;;;;;;;;;;;;;;;19.91;61.16;100721.91;5019309;28;20919;-56
2023/07/25 11:13:34;;;;;;;;;;;;;;;19.33;65.10;100725.47;5010062;28;19918;-56
2023/07/25 11:16:02;;;;;;;;;;;;;;;19.02;66.66;100732.03;5010660;28;19914;-56
2023/07/25 11:18:27;;;;;;;;;;;;;;;18.79;66.48;100728.78;5023795;28;20362;-57
2023/07/25 11:20:59;;;;;;;;;;;;;;;18.58;66.65;100723.75;5013830;28;19952;-55
2023/07/25 11:23:25;;;;;;;;;;;;;;;18.42;67.61;100727.44;5016579;28;20000;-56
2023/07/25 11:25:57;;;;;;;;;;;;;;;18.31;69.53;100721.41;5027486;28;20000;-55
2023/07/25 11:28:22;;;;;;;;;;;;;;;18.35;70.25;100728.38;5011008;28;19917;-56
2023/07/25 11:30:47;;;;;;;;;;;;;;;18.37;68.99;100724.84;5009103;28;19920;-56
2023/07/25 11:33:13;;;;;;;;;;;;;;;18.54;70.54;100718.53;5010231;28;20367;-55
2023/07/25 11:35:38;;;;;;;;;;;;;;;18.86;69.59;100720.81;5007137;28;19924;-56
2023/07/25 11:38:03;;;;;;;;;;;;;;;19.03;69.16;100733.78;5009262;28;19920;-56
2023/07/25 11:40:28;;;;;;;;;;;;;;;19.22;66.57;100729.13;5010715;28;19997;-56
2023/07/25 11:42:54;;;;;;;;;;;;;;;19.49;64.70;100720.81;5018859;28;19983;-56
2023/07/25 11:45:20;;;;;;;;;;;;;;;19.41;64.33;100724.44;5027167;28;20364;-55
2023/07/25 11:47:47;;;;;;;;;;;;;;;19.25;63.52;100731.72;5026481;28;19913;-55
2023/07/25 11:50:12;;;;;;;;;;;;;;;19.05;65.31;100736.41;5020703;28;19935;-55
2023/07/25 11:52:39;;;;;;;;;;;;;;;18.88;64.15;100740.13;5022338;28;19921;-56
2023/07/25 11:55:06;;;;;;;;;;;;;;;18.76;63.46;100741.13;5006927;28;19951;-56
2023/07/25 11:57:31;;;;;;;;;;;;;;;18.92;65.95;100723.34;5012493;28;19920;-55
2023/07/25 11:59:58;;;;;;;;;;;;;;;19.37;65.45;100732.44;5019993;28;20000;-56
2023/07/25 12:02:24;;;;;;;;;;;;;;;19.77;65.95;100726.56;5015673;28;19924;-56
2023/07/25 12:04:50;;;;;;;;;;;;;;;20.10;63.26;100733.06;5020460;28;19913;-56
2023/07/25 12:07:15;;;;;;;;;;;;;;;20.02;59.92;100739.41;5020826;28;19917;-56
2023/07/25 12:09:53;;;;;;;;;;;;;;;19.69;60.88;100739.00;5017627;28;20024;-55
2023/07/25 12:12:19;;;;;;;;;;;;;;;19.50;61.04;100734.00;5027078;28;19916;-55
2023/07/25 12:14:52;;;;;;;;;;;;;;;19.71;62.34;100732.81;5015871;28;19945;-56
2023/07/25 12:17:18;;;;;;;;;;;;;;;20.00;61.64;100733.25;5033596;28;19913;-56
2023/07/25 12:19:50;;;;;;;;;;;;;;;20.32;61.75;100730.91;5019847;28;19916;-55
2023/07/25 12:22:15;;;;;;;;;;;;;;;20.62;60.41;100736.50;5024173;28;19917;-56
2023/07/25 12:24:41;;;;;;;;;;;;;;;20.87;60.75;100732.50;5013228;28;20437;-56
2023/07/25 12:27:15;;;;;;;;;;;;;;;21.10;58.90;100732.00;5016205;28;19921;-56